createdAt,value
2023-02-08T00:01:16.625Z,34.28
2023-02-08T00:03:43.223Z,42.33
2023-02-08T00:06:10.685Z,34.45
2023-02-08T00:08:37.732Z,30.30
2023-02-08T00:11:05.715Z,39.65
2023-02-08T00:13:33.015Z,32.70
2023-02-08T00:16:18.851Z,30.30
2023-02-08T00:18:45.517Z,24.92
2023-02-08T00:21:15.660Z,26.23
2023-02-08T00:23:42.416Z,25.83
2023-02-08T00:26:09.521Z,27.05
2023-02-08T00:28:37.798Z,26.48
2023-02-08T00:31:05.414Z,30.80
2023-02-08T00:33:32.091Z,32.88
2023-02-08T00:36:04.610Z,28.23
2023-02-08T00:38:31.213Z,33.28
2023-02-08T00:40:57.742Z,29.17
2023-02-08T00:43:24.270Z,28.23
2023-02-08T00:45:55.511Z,36.97
2023-02-08T00:48:22.233Z,29.33
2023-02-08T00:51:07.513Z,27.80
2023-02-08T00:53:38.940Z,29.27
2023-02-08T00:56:07.262Z,27.55
2023-02-08T00:58:34.887Z,24.57
2023-02-08T01:01:03.527Z,26.75
2023-02-08T01:03:30.024Z,28.42
2023-02-08T01:06:01.703Z,26.70
2023-02-08T01:08:28.219Z,25.38
2023-02-08T01:11:10.135Z,25.38
2023-02-08T01:13:38.139Z,26.23
2023-02-08T01:16:15.134Z,26.33
2023-02-08T01:19:01.830Z,23.90
2023-02-08T01:21:49.150Z,22.27
2023-02-08T01:24:15.754Z,25.88
2023-02-08T01:27:00.879Z,25.60
2023-02-08T01:29:47.636Z,26.55
2023-02-08T01:32:34.446Z,26.17
2023-02-08T01:35:21.176Z,25.58
2023-02-08T01:38:08.002Z,35.10
2023-02-08T01:40:55.018Z,24.70
2023-02-08T01:44:02.125Z,27.08
2023-02-08T01:46:51.119Z,26.35
2023-02-08T01:52:21.990Z,27.27
2023-02-08T01:54:56.206Z,23.92
2023-02-08T01:57:42.898Z,29.02
2023-02-08T02:00:28.383Z,25.00
2023-02-08T02:03:14.388Z,25.05
2023-02-08T02:06:14.088Z,25.25
2023-02-08T02:09:17.626Z,25.05
2023-02-08T02:12:07.753Z,26.65
2023-02-08T02:14:55.267Z,26.27
2023-02-08T02:17:42.260Z,23.48
2023-02-08T02:20:29.240Z,27.30
2023-02-08T02:23:16.883Z,26.75
2023-02-08T02:25:58.380Z,28.55
2023-02-08T02:28:36.433Z,28.88
2023-02-08T02:31:23.477Z,24.65
2023-02-08T02:34:23.200Z,23.58
2023-02-08T02:37:15.891Z,29.13
2023-02-08T02:40:08.493Z,25.95
2023-02-08T02:43:07.270Z,25.05
2023-02-08T02:45:39.870Z,24.60
2023-02-08T02:48:17.180Z,26.33
2023-02-08T02:51:31.759Z,30.20
2023-02-08T02:54:25.649Z,25.27
2023-02-08T02:57:16.085Z,36.60
2023-02-08T03:00:08.729Z,26.92
2023-02-08T03:02:56.094Z,26.80
2023-02-08T03:05:42.928Z,30.25
2023-02-08T03:09:09.879Z,30.00
2023-02-08T03:12:34.412Z,29.70
2023-02-08T03:15:51.811Z,29.23
2023-02-08T03:18:33.592Z,31.40
2023-02-08T03:21:19.296Z,29.65
2023-02-08T03:24:01.611Z,32.08
2023-02-08T03:27:12.276Z,26.90
2023-02-08T03:30:10.901Z,32.20
2023-02-08T03:32:40.334Z,26.02
2023-02-08T03:35:15.334Z,24.85
2023-02-08T03:37:58.253Z,26.27
2023-02-08T03:40:31.072Z,29.67
2023-02-08T03:43:03.474Z,25.33
2023-02-08T03:46:03.123Z,25.02
2023-02-08T03:48:31.800Z,29.35
2023-02-08T03:51:01.895Z,25.42
2023-02-08T03:53:32.477Z,25.42
2023-02-08T03:56:04.988Z,26.85
2023-02-08T03:58:38.600Z,26.35
2023-02-08T04:01:31.967Z,24.50
2023-02-08T04:03:59.837Z,24.45
2023-02-08T04:06:26.692Z,25.80
2023-02-08T04:08:56.418Z,26.50
2023-02-08T04:11:53.098Z,27.83
2023-02-08T04:14:38.158Z,25.27
2023-02-08T04:17:06.026Z,26.73
2023-02-08T04:19:51.278Z,24.33
2023-02-08T04:22:18.671Z,26.00
2023-02-08T04:25:04.394Z,25.85
2023-02-08T04:27:56.736Z,26.45
2023-02-08T04:30:42.004Z,26.10
2023-02-08T04:33:27.333Z,26.52
2023-02-08T04:36:12.737Z,24.20
2023-02-08T04:38:57.600Z,25.38
2023-02-08T04:41:24.089Z,25.73
2023-02-08T04:43:50.541Z,23.77
2023-02-08T04:46:35.499Z,30.15
2023-02-08T04:49:21.022Z,28.33
2023-02-08T04:52:06.706Z,26.27
2023-02-08T04:54:53.481Z,23.67
2023-02-08T04:57:20.096Z,25.85
2023-02-08T04:59:46.527Z,25.25
2023-02-08T05:02:12.991Z,26.10
2023-02-08T05:04:39.469Z,25.95
2023-02-08T05:07:05.937Z,24.15
2023-02-08T05:09:33.071Z,24.00
2023-02-08T05:11:59.587Z,23.23
2023-02-08T05:14:44.954Z,26.85
2023-02-08T05:17:19.038Z,25.52
2023-02-08T05:20:04.913Z,27.23
2023-02-08T05:22:50.005Z,24.90
2023-02-08T05:25:35.027Z,25.55
2023-02-08T05:28:17.204Z,26.13
2023-02-08T05:31:18.544Z,25.48
2023-02-08T05:34:03.897Z,27.52
2023-02-08T05:36:50.734Z,25.95
2023-02-08T05:39:37.499Z,23.92
2023-02-08T05:42:24.263Z,22.83
2023-02-08T05:45:11.068Z,31.35
2023-02-08T05:47:57.956Z,25.40
2023-02-08T05:50:44.746Z,29.40
2023-02-08T05:53:31.765Z,27.92
2023-02-08T05:56:18.613Z,25.98
2023-02-08T05:59:05.401Z,23.17
2023-02-08T06:01:52.165Z,27.10
2023-02-08T06:04:39.242Z,24.58
2023-02-08T06:07:26.130Z,23.50
2023-02-08T06:10:12.902Z,24.20
2023-02-08T06:12:59.712Z,23.50
2023-02-08T06:15:46.565Z,23.45
2023-02-08T06:18:33.358Z,25.13
2023-02-08T06:21:20.120Z,23.77
2023-02-08T06:23:46.700Z,25.15
2023-02-08T06:26:13.291Z,27.27
2023-02-08T06:29:00.432Z,26.02
2023-02-08T06:31:45.295Z,26.33
2023-02-08T06:34:32.099Z,27.60
2023-02-08T06:37:02.160Z,30.20
2023-02-08T06:39:29.660Z,25.00
2023-02-08T06:41:56.132Z,26.45
2023-02-08T06:44:22.661Z,23.42
2023-02-08T06:46:49.442Z,26.08
2023-02-08T06:49:16.187Z,24.63
2023-02-08T06:51:42.816Z,23.95
2023-02-08T06:54:10.035Z,23.60
2023-02-08T06:56:36.719Z,27.05
2023-02-08T06:59:21.983Z,27.42
2023-02-08T07:01:48.451Z,24.08
2023-02-08T07:04:14.945Z,24.30
2023-02-08T07:06:41.437Z,26.10
2023-02-08T07:09:26.580Z,26.00
2023-02-08T07:12:12.121Z,28.15
2023-02-08T07:14:41.371Z,23.92
2023-02-08T07:17:07.956Z,25.15
2023-02-08T07:19:34.526Z,31.70
2023-02-08T07:22:07.941Z,29.42
2023-02-08T07:24:52.833Z,25.25
2023-02-08T07:27:38.119Z,25.23
2023-02-08T07:30:05.858Z,28.20
2023-02-08T07:32:34.758Z,30.45
2023-02-08T07:35:19.820Z,27.63
2023-02-08T07:38:04.802Z,27.67
2023-02-08T07:40:32.125Z,28.20
2023-02-08T07:42:58.635Z,27.15
2023-02-08T07:45:25.741Z,26.58
2023-02-08T07:47:52.252Z,23.45
2023-02-08T07:50:37.225Z,27.70
2023-02-08T07:53:03.761Z,29.38
2023-02-08T07:55:32.213Z,27.08
2023-02-08T07:58:17.541Z,25.25
2023-02-08T08:00:44.376Z,25.45
2023-02-08T08:03:10.891Z,21.75
2023-02-08T08:05:41.077Z,28.23
2023-02-08T08:08:26.283Z,27.85
2023-02-08T08:10:52.935Z,25.98
2023-02-08T08:13:19.391Z,27.42
2023-02-08T08:15:47.345Z,30.92
2023-02-08T08:18:14.163Z,21.80
2023-02-08T08:20:40.961Z,24.00
2023-02-08T08:23:07.915Z,25.08
2023-02-08T08:25:34.522Z,22.83
2023-02-08T08:28:02.059Z,23.40
2023-02-08T08:30:28.602Z,23.48
2023-02-08T08:32:55.046Z,21.10
2023-02-08T08:35:35.327Z,24.90
2023-02-08T08:38:01.816Z,23.67
2023-02-08T08:40:29.793Z,24.15
2023-02-08T08:43:15.942Z,22.50
2023-02-08T08:45:42.526Z,26.98
2023-02-08T08:48:09.546Z,22.50
2023-02-08T08:50:36.064Z,25.67
2023-02-08T08:53:22.094Z,22.38
2023-02-08T08:56:07.319Z,20.23
2023-02-08T08:58:52.446Z,21.70
2023-02-08T09:01:38.862Z,26.75
2023-02-08T09:04:05.509Z,22.70
2023-02-08T09:06:32.165Z,24.80
2023-02-08T09:08:58.654Z,21.70
2023-02-08T09:11:25.826Z,21.52
2023-02-08T09:13:55.388Z,22.15
2023-02-08T09:16:23.989Z,21.98
2023-02-08T09:18:50.852Z,24.52
2023-02-08T09:21:21.033Z,25.92
2023-02-08T09:23:48.118Z,20.63
2023-02-08T09:28:44.827Z,23.30
2023-02-08T09:31:18.652Z,22.20
2023-02-08T09:33:45.220Z,23.00
2023-02-08T09:36:11.723Z,22.27
2023-02-08T09:38:42.047Z,22.80
2023-02-08T09:41:42.646Z,24.65
2023-02-08T09:44:20.347Z,21.45
2023-02-08T09:47:18.469Z,21.25
2023-02-08T09:50:14.095Z,21.35
2023-02-08T09:52:45.540Z,22.83
2023-02-08T09:55:36.897Z,22.88
2023-02-08T09:58:15.678Z,20.48
2023-02-08T10:00:45.667Z,23.33
2023-02-08T10:03:27.946Z,20.77
2023-02-08T10:05:54.921Z,23.95
2023-02-08T10:08:22.914Z,24.50
2023-02-08T10:10:58.992Z,20.65
2023-02-08T10:13:56.764Z,24.45
2023-02-08T10:16:35.862Z,23.73
2023-02-08T10:22:00.323Z,23.63
2023-02-08T10:24:45.327Z,19.98
2023-02-08T10:27:17.806Z,22.20
2023-02-08T10:30:15.310Z,25.52
2023-02-08T10:33:02.609Z,21.38
2023-02-08T10:35:39.976Z,21.23
2023-02-08T10:38:45.350Z,24.08
2023-02-08T10:44:36.212Z,21.48
2023-02-08T10:47:42.900Z,22.08
2023-02-08T10:50:46.447Z,20.52
2023-02-08T10:53:18.469Z,22.30
2023-02-08T10:55:51.848Z,21.00
2023-02-08T10:58:28.053Z,19.65
2023-02-08T11:00:55.483Z,20.08
2023-02-08T11:04:04.103Z,20.30
2023-02-08T11:06:34.941Z,22.33
2023-02-08T11:09:01.774Z,27.08
2023-02-08T11:11:38.565Z,19.15
2023-02-08T11:14:22.272Z,19.77
2023-02-08T11:17:03.072Z,21.02
2023-02-08T11:19:49.246Z,21.08
2023-02-08T11:22:22.221Z,20.63
2023-02-08T11:25:04.443Z,19.75
2023-02-08T11:28:02.377Z,20.48
2023-02-08T11:30:29.326Z,23.10
2023-02-08T11:33:21.892Z,19.83
2023-02-08T11:35:57.694Z,18.88
2023-02-08T11:38:29.407Z,16.67
2023-02-08T11:41:00.891Z,18.13
2023-02-08T11:43:36.897Z,17.65
2023-02-08T11:46:06.607Z,16.50
2023-02-08T11:48:42.806Z,17.73
2023-02-08T11:51:13.237Z,20.83
2023-02-08T11:53:45.958Z,27.13
2023-02-08T11:56:27.728Z,18.27
2023-02-08T11:58:57.160Z,17.65
2023-02-08T12:01:29.381Z,20.73
2023-02-08T12:03:59.441Z,19.83
2023-02-08T12:06:37.784Z,17.75
2023-02-08T12:09:18.518Z,19.17
2023-02-08T12:11:48.161Z,19.75
2023-02-08T12:14:18.499Z,21.92
2023-02-08T12:17:00.110Z,21.17
2023-02-08T12:19:53.336Z,17.70
2023-02-08T12:22:27.755Z,18.17
2023-02-08T12:25:20.348Z,17.05
2023-02-08T12:28:25.230Z,34.50
2023-02-08T12:31:01.840Z,28.50
2023-02-08T12:33:35.944Z,19.10
2023-02-08T12:36:26.986Z,21.45
2023-02-08T12:39:26.024Z,15.77
2023-02-08T12:42:11.234Z,18.17
2023-02-08T12:45:05.322Z,53.60
2023-02-08T12:48:04.005Z,56.35
2023-02-08T12:50:51.151Z,17.15
2023-02-08T12:53:31.624Z,18.90
2023-02-08T12:56:02.135Z,15.40
2023-02-08T12:58:45.595Z,14.73
2023-02-08T13:01:23.072Z,15.93
2023-02-08T13:04:16.420Z,12.40
2023-02-08T13:07:14.811Z,14.68
2023-02-08T13:10:06.429Z,13.40
2023-02-08T13:12:56.793Z,13.32
2023-02-08T13:15:36.265Z,14.30
2023-02-08T13:18:12.639Z,15.82
2023-02-08T13:20:51.296Z,11.98
2023-02-08T13:23:29.743Z,16.98
2023-02-08T13:26:01.845Z,12.60
2023-02-08T13:28:29.000Z,11.93
2023-02-08T13:31:11.444Z,14.25
2023-02-08T13:33:55.619Z,12.90
2023-02-08T13:37:01.912Z,14.73
2023-02-08T13:39:48.952Z,13.68
2023-02-08T13:42:30.458Z,12.25
2023-02-08T13:45:26.930Z,11.90
2023-02-08T13:48:00.824Z,14.07
2023-02-08T13:50:50.864Z,12.43
2023-02-08T13:53:37.826Z,9.95
2023-02-08T13:56:09.554Z,9.98
2023-02-08T13:58:48.801Z,14.02
2023-02-08T14:01:22.729Z,11.60
2023-02-08T14:04:07.589Z,13.93
2023-02-08T14:07:11.122Z,12.27
2023-02-08T14:10:01.862Z,14.02
2023-02-08T14:15:44.128Z,13.20
2023-02-08T14:18:30.297Z,12.43
2023-02-08T14:21:33.544Z,10.18
2023-02-08T14:25:02.324Z,10.40
2023-02-08T14:27:57.157Z,9.27
2023-02-08T14:30:30.255Z,9.07
2023-02-08T14:33:08.427Z,6.00
2023-02-08T14:35:38.916Z,7.72
2023-02-08T14:38:20.680Z,10.93
2023-02-08T14:40:50.380Z,9.70
2023-02-08T14:43:19.770Z,9.80
2023-02-08T14:48:42.532Z,9.05
2023-02-08T14:51:11.989Z,9.70
2023-02-08T14:56:33.709Z,7.90
2023-02-08T14:59:06.600Z,9.88
2023-02-08T15:01:48.812Z,10.68
2023-02-08T15:04:18.103Z,7.28
2023-02-08T15:07:14.548Z,14.82
2023-02-08T15:09:43.454Z,13.32
2023-02-08T15:12:31.644Z,14.10
2023-02-08T15:15:00.861Z,12.48
2023-02-08T15:17:57.238Z,17.50
2023-02-08T15:20:27.628Z,17.10
2023-02-08T15:23:18.697Z,13.65
2023-02-08T15:25:55.023Z,12.40
2023-02-08T15:28:24.191Z,12.52
2023-02-08T15:31:10.786Z,14.55
2023-02-08T15:33:39.302Z,13.68
2023-02-08T15:36:16.278Z,12.95
2023-02-08T15:38:44.930Z,12.93
2023-02-08T15:41:33.827Z,13.30
2023-02-08T15:44:23.127Z,10.02
2023-02-08T15:49:30.247Z,13.57
2023-02-08T15:51:57.755Z,11.20
2023-02-08T15:54:24.928Z,11.85
2023-02-08T15:56:59.377Z,12.43
2023-02-08T15:59:29.272Z,8.55
2023-02-08T16:01:58.270Z,11.00
2023-02-08T16:04:25.736Z,10.38
2023-02-08T16:07:00.622Z,11.88
2023-02-08T16:09:28.926Z,10.70
2023-02-08T16:11:59.188Z,10.32
2023-02-08T16:14:29.842Z,11.13
2023-02-08T16:16:58.290Z,8.63
2023-02-08T16:19:29.133Z,10.73
2023-02-08T16:22:25.786Z,10.32
2023-02-08T16:24:52.403Z,12.82
2023-02-08T16:27:30.084Z,11.90
2023-02-08T16:29:57.074Z,10.55
2023-02-08T16:32:39.569Z,15.30
2023-02-08T16:35:29.462Z,14.98
2023-02-08T16:38:02.626Z,12.13
2023-02-08T16:41:12.603Z,11.98
2023-02-08T16:43:47.738Z,12.82
2023-02-08T16:46:14.879Z,15.25
2023-02-08T16:48:42.511Z,16.40
2023-02-08T16:51:16.710Z,15.68
2023-02-08T16:53:47.624Z,15.23
2023-02-08T16:56:14.676Z,15.20
2023-02-08T16:58:41.266Z,16.00
2023-02-08T17:01:14.005Z,17.95
2023-02-08T17:03:57.379Z,16.10
2023-02-08T17:06:30.153Z,13.02
2023-02-08T17:09:25.616Z,18.52
2023-02-08T17:12:21.862Z,15.95
2023-02-08T17:15:07.873Z,14.43
2023-02-08T17:17:54.359Z,14.05
2023-02-08T17:20:40.240Z,16.15
2023-02-08T17:23:27.179Z,12.90
2023-02-08T17:26:17.459Z,17.13
2023-02-08T17:29:04.483Z,17.80
2023-02-08T17:31:51.292Z,18.13
2023-02-08T17:34:39.529Z,17.48
2023-02-08T17:37:26.366Z,16.63
2023-02-08T17:40:14.365Z,16.08
2023-02-08T17:43:01.745Z,20.00
2023-02-08T17:45:48.578Z,15.48
2023-02-08T17:48:35.345Z,19.02
2023-02-08T17:51:24.024Z,17.95
2023-02-08T17:54:12.156Z,16.60
2023-02-08T17:56:59.773Z,16.08
2023-02-08T17:59:46.756Z,19.05
2023-02-08T18:02:33.597Z,18.60
2023-02-08T18:05:24.152Z,16.67
2023-02-08T18:08:10.902Z,17.52
2023-02-08T18:11:06.234Z,19.17
2023-02-08T18:13:54.202Z,20.35
2023-02-08T18:16:41.146Z,20.88
2023-02-08T18:19:07.801Z,20.83
2023-02-08T18:21:52.647Z,27.50
2023-02-08T18:24:54.118Z,19.15
2023-02-08T18:27:40.010Z,22.15
2023-02-08T18:30:07.729Z,20.55
2023-02-08T18:32:34.214Z,23.98
2023-02-08T18:35:03.432Z,18.20
2023-02-08T18:37:30.656Z,17.95
2023-02-08T18:39:57.229Z,20.65
2023-02-08T18:42:23.691Z,21.13
2023-02-08T18:44:50.244Z,21.48
2023-02-08T18:47:16.771Z,17.83
2023-02-08T18:49:43.325Z,18.90
2023-02-08T18:52:11.819Z,21.50
2023-02-08T18:54:56.904Z,20.13
2023-02-08T18:57:23.490Z,18.05
2023-02-08T18:59:50.029Z,25.30
2023-02-08T19:02:36.548Z,24.88
2023-02-08T19:05:21.344Z,20.95
2023-02-08T19:07:47.846Z,21.90
2023-02-08T19:10:14.357Z,22.30
2023-02-08T19:12:58.083Z,22.80
2023-02-08T19:15:44.708Z,22.70
2023-02-08T19:18:32.924Z,21.42
2023-02-08T19:21:20.106Z,20.98
2023-02-08T19:23:48.245Z,20.38
2023-02-08T19:26:36.939Z,21.58
2023-02-08T19:29:22.755Z,20.63
2023-02-08T19:32:09.562Z,23.70
2023-02-08T19:34:56.988Z,23.55
2023-02-08T19:37:45.558Z,23.77
2023-02-08T19:40:32.396Z,22.38
2023-02-08T19:43:19.143Z,23.95
2023-02-08T19:45:46.306Z,29.25
2023-02-08T19:48:31.653Z,27.17
2023-02-08T19:51:17.873Z,24.00
2023-02-08T19:54:08.476Z,24.00
2023-02-08T19:56:55.770Z,24.50
2023-02-08T19:59:43.506Z,22.55
2023-02-08T20:02:30.267Z,23.52
2023-02-08T20:05:17.133Z,24.10
2023-02-08T20:08:04.064Z,22.15
2023-02-08T20:10:50.845Z,20.92
2023-02-08T20:13:37.743Z,23.95
2023-02-08T20:16:25.060Z,23.65
2023-02-08T20:19:13.096Z,23.42
2023-02-08T20:21:59.901Z,28.30
2023-02-08T20:24:46.929Z,20.70
2023-02-08T20:27:33.752Z,21.60
2023-02-08T20:30:00.741Z,23.77
2023-02-08T20:32:27.579Z,22.55
2023-02-08T20:34:59.890Z,22.02
2023-02-08T20:37:28.456Z,20.80
2023-02-08T20:40:15.382Z,23.83
2023-02-08T20:42:41.913Z,23.83
2023-02-08T20:45:08.964Z,22.02
2023-02-08T20:47:45.971Z,24.05
2023-02-08T20:50:19.520Z,23.98
2023-02-08T20:52:49.007Z,22.92
2023-02-08T20:55:34.371Z,22.42
2023-02-08T20:58:00.854Z,23.70
2023-02-08T21:00:36.756Z,22.73
2023-02-08T21:03:08.284Z,22.13
2023-02-08T21:05:34.812Z,22.65
2023-02-08T21:08:01.276Z,19.48
2023-02-08T21:10:27.706Z,24.65
2023-02-08T21:12:54.254Z,24.77
2023-02-08T21:15:20.794Z,26.40
2023-02-08T21:17:47.337Z,22.45
2023-02-08T21:20:15.032Z,24.63
2023-02-08T21:22:41.766Z,23.55
2023-02-08T21:25:26.764Z,21.60
2023-02-08T21:27:53.331Z,24.45
2023-02-08T21:30:20.558Z,24.27
2023-02-08T21:32:47.010Z,22.55
2023-02-08T21:35:13.490Z,22.67
2023-02-08T21:37:40.761Z,21.83
2023-02-08T21:40:07.419Z,20.38
2023-02-08T21:42:33.906Z,20.80
2023-02-08T21:45:00.417Z,24.02
2023-02-08T21:47:26.943Z,22.63
2023-02-08T21:50:12.151Z,21.98
2023-02-08T21:52:57.219Z,19.75
2023-02-08T21:55:23.759Z,20.80
2023-02-08T21:57:51.535Z,20.58
2023-02-08T22:00:18.132Z,20.02
2023-02-08T22:02:44.847Z,23.27
2023-02-08T22:05:29.934Z,19.90
2023-02-08T22:07:57.889Z,21.67
2023-02-08T22:10:27.678Z,22.83
2023-02-08T22:12:55.157Z,22.63
2023-02-08T22:15:25.287Z,24.60
2023-02-08T22:17:55.581Z,20.35
2023-02-08T22:20:22.346Z,24.15
2023-02-08T22:22:52.630Z,20.92
2023-02-08T22:25:21.156Z,21.23
2023-02-08T22:28:23.899Z,26.33
2023-02-08T22:30:50.905Z,22.83
2023-02-08T22:33:17.461Z,25.55
2023-02-08T22:35:43.932Z,21.75
2023-02-08T22:38:13.081Z,23.55
2023-02-08T22:40:41.718Z,22.58
2023-02-08T22:43:08.231Z,21.42
2023-02-08T22:45:34.775Z,22.23
2023-02-08T22:48:01.274Z,20.95
2023-02-08T22:50:27.822Z,22.02
2023-02-08T22:52:54.316Z,24.40
2023-02-08T22:55:25.672Z,21.73
2023-02-08T22:57:52.188Z,21.85
2023-02-08T23:00:18.769Z,22.17
2023-02-08T23:02:45.364Z,20.52
2023-02-08T23:05:12.042Z,22.10
2023-02-08T23:07:38.591Z,22.45
2023-02-08T23:10:05.192Z,22.20
2023-02-08T23:12:31.716Z,20.63
2023-02-08T23:14:58.155Z,23.08
2023-02-08T23:17:24.756Z,23.88
2023-02-08T23:19:52.524Z,22.35
2023-02-08T23:22:19.012Z,23.33
2023-02-08T23:24:45.612Z,22.35
2023-02-08T23:27:12.175Z,20.90
2023-02-08T23:29:38.689Z,26.45
2023-02-08T23:32:05.266Z,23.95
2023-02-08T23:34:34.162Z,22.42
2023-02-08T23:37:14.903Z,25.55
2023-02-08T23:39:41.655Z,24.67
2023-02-08T23:42:25.273Z,28.42
2023-02-08T23:44:56.315Z,23.20
2023-02-08T23:47:24.386Z,23.83
2023-02-08T23:49:51.455Z,28.02
2023-02-08T23:52:18.120Z,27.88
2023-02-08T23:54:51.114Z,27.80
2023-02-08T23:57:18.499Z,28.60
2023-02-08T23:59:44.971Z,27.15
